West Fork, AR

10:07 PM CDT on March 26, 2017 (GMT -0500)
West Fork/Bloyd Mountain | | Change Station

Elev 1600 ft 35.93 °N, 94.17 °W | Updated 4 seconds ago

Thunderstorm
Thunderstorm
61.7 °F
Feels Like 61.7 °F
N
1.3
Wind Variable Wind from ESE
Gusts 10.5 mph

Today
High -- | Low -- °F
--% Chance of Precip.
Yesterday
High -- | Low -- °F
Precip. -- in
Pressure 29.83 in
Visibility 8.0 miles
Clouds Mostly Cloudy 6000 ft
Overcast 8000 ft
Dew Point 55 °F
Humidity 78%
Rainfall 0.04 in
Snow Depth Not available.
7:11 AM 7:33 PM
Waning Crescent, 1% visible
METAR KFYV 270253Z 33010KT 8SM -TSRA BKN060 OVC080 16/13 A2985 RMK AO2 LTG DSNT ALQDS RAB10E21B38 TSB01E19B26 SLP102 P0005 60005 T01560128 53012
Pressure 29.83 in
Visibility 8.0 miles
Clouds Mostly Cloudy 6000 ft
Overcast 8000 ft
Dew Point 55 °F
Humidity 78%
Rainfall 0.04 in
Snow Depth Not available.
7:11 AM 7:33 PM
Waning Crescent, 1% visible
METAR KFYV 270253Z 33010KT 8SM -TSRA BKN060 OVC080 16/13 A2985 RMK AO2 LTG DSNT ALQDS RAB10E21B38 TSB01E19B26 SLP102 P0005 60005 T01560128 53012

Get Severe Weather Alerts

Thanks for signing up!

Be on the lookout for a verification email in your inbox.

You'll start receiving the daily forecast at 8 AM.

×

10-Day Weather Forecast

Almanac

Astronomy

Mar. 26, 2017 Rise Set
Actual Time
Civil Twilight
Nautical Twilight
Astronomical Twilight
Moon
Length of Visible Light
Length of Day
Tomorrow will be .
, % of the Moon is Illuminated

Today's Extremes

State Highs State Lows

Community

WunderPhotos

Upload Photos

1,962,540 photos uploaded!

WunderBlog® & News

Nearby

Air Quality

  Air Quality AQ Index Pollutant
Not available.

Snow Depth

Station Depth Elevation

Earthquake Activity

City Distance Mag. Time & Date
Minimum magnitude displayed is 2.5.

Earthquake Activity

City Distance Mag. Time & Date
Minimum magnitude displayed is 2.5.

Coastal Water Temperatures

Place Temperature

Stations

Nearby Weather Stations

Station Location Temp. Windchill Dew Point Humidity Wind Precip. Elev Updated Type
                   

Watches & Warnings

There are currently no watches in effect.